createdAt,value
2022-12-18T00:00:54.358Z,972.05
2022-12-18T00:01:54.338Z,972.09
2022-12-18T00:02:54.364Z,972.13
2022-12-18T00:03:54.350Z,972.17
2022-12-18T00:04:54.159Z,972.18
2022-12-18T00:05:54.106Z,972.18
2022-12-18T00:06:54.054Z,972.15
2022-12-18T00:07:54.007Z,972.20
2022-12-18T00:08:53.956Z,972.20
2022-12-18T00:09:53.947Z,972.18
2022-12-18T00:10:53.867Z,972.22
2022-12-18T00:11:53.806Z,972.27
2022-12-18T00:12:53.762Z,972.22
2022-12-18T00:13:53.709Z,972.27
2022-12-18T00:14:53.661Z,972.29
2022-12-18T00:15:53.661Z,972.28
2022-12-18T00:16:53.563Z,972.30
2022-12-18T00:17:53.511Z,972.33
2022-12-18T00:18:53.497Z,972.33
2022-12-18T00:19:53.412Z,972.27
2022-12-18T00:20:53.362Z,972.29
2022-12-18T00:21:53.311Z,972.24
2022-12-18T00:22:53.265Z,972.25
2022-12-18T00:23:53.216Z,972.26
2022-12-18T00:24:53.187Z,972.24
2022-12-18T00:25:53.113Z,972.21
2022-12-18T00:26:53.064Z,972.19
2022-12-18T00:27:53.017Z,972.20
2022-12-18T00:28:52.997Z,972.19
2022-12-18T00:29:52.914Z,972.19
2022-12-18T00:30:52.868Z,972.23
2022-12-18T00:31:52.873Z,972.26
2022-12-18T00:32:52.771Z,972.27
2022-12-18T00:33:54.133Z,972.32
2022-12-18T00:34:52.663Z,972.34
2022-12-18T00:35:52.618Z,972.39
2022-12-18T00:36:52.566Z,972.40
2022-12-18T00:37:52.568Z,972.39
2022-12-18T00:38:52.469Z,972.44
2022-12-18T00:39:52.417Z,972.40
2022-12-18T00:40:52.384Z,972.42
2022-12-18T00:41:52.322Z,972.36
2022-12-18T00:42:52.274Z,972.32
2022-12-18T00:43:52.241Z,972.37
2022-12-18T00:44:52.170Z,972.35
2022-12-18T00:45:52.169Z,972.32
2022-12-18T00:46:52.068Z,972.29
2022-12-18T00:47:52.022Z,972.34
2022-12-18T00:48:51.970Z,972.36
2022-12-18T00:49:51.932Z,972.38
2022-12-18T00:50:51.874Z,972.40
2022-12-18T00:51:51.819Z,972.33
2022-12-18T00:52:51.773Z,972.31
2022-12-18T00:53:51.758Z,972.34
2022-12-18T00:54:51.671Z,972.36
2022-12-18T00:55:51.620Z,972.41
2022-12-18T00:56:51.578Z,972.42
2022-12-18T00:57:51.523Z,972.44
2022-12-18T00:58:51.474Z,972.45
2022-12-18T00:59:51.448Z,972.45
2022-12-18T01:00:51.416Z,972.46
2022-12-18T01:01:51.473Z,972.47
2022-12-18T01:02:51.379Z,972.51
2022-12-18T01:03:51.222Z,972.50
2022-12-18T01:04:51.172Z,972.52
2022-12-18T01:05:51.117Z,972.50
2022-12-18T01:06:51.075Z,972.50
2022-12-18T01:07:51.048Z,972.45
2022-12-18T01:08:50.974Z,972.43
2022-12-18T01:09:50.920Z,972.42
2022-12-18T01:10:50.869Z,972.42
2022-12-18T01:11:50.858Z,972.40
2022-12-18T01:12:50.768Z,972.41
2022-12-18T01:13:50.718Z,972.44
2022-12-18T01:14:50.664Z,972.44
2022-12-18T01:15:50.626Z,972.44
2022-12-18T01:16:50.632Z,972.52
2022-12-18T01:17:50.529Z,972.50
2022-12-18T01:18:50.465Z,972.45
2022-12-18T01:19:50.414Z,972.48
2022-12-18T01:20:50.387Z,972.48
2022-12-18T01:21:50.316Z,972.51
2022-12-18T01:22:50.267Z,972.50
2022-12-18T01:23:50.327Z,972.52
2022-12-18T01:24:50.169Z,972.53
2022-12-18T01:25:50.113Z,972.55
2022-12-18T01:26:50.067Z,972.55
2022-12-18T01:27:50.025Z,972.60
2022-12-18T01:28:49.959Z,972.63
2022-12-18T01:29:49.933Z,972.61
2022-12-18T01:30:49.865Z,972.59
2022-12-18T01:31:49.880Z,972.60
2022-12-18T01:32:49.767Z,972.64
2022-12-18T01:33:49.709Z,972.64
2022-12-18T01:34:49.673Z,972.67
2022-12-18T01:35:49.610Z,972.69
2022-12-18T01:36:49.561Z,972.68
2022-12-18T01:37:49.509Z,972.69
2022-12-18T01:38:49.461Z,972.70
2022-12-18T01:39:49.414Z,972.68
2022-12-18T01:40:49.372Z,972.65
2022-12-18T01:41:49.333Z,972.71
2022-12-18T01:42:49.259Z,972.66
2022-12-18T01:43:49.210Z,972.68
2022-12-18T01:44:49.158Z,972.66
2022-12-18T01:45:49.195Z,972.71
2022-12-18T01:46:49.070Z,972.66
2022-12-18T01:47:49.007Z,972.68
2022-12-18T01:48:48.957Z,972.77
2022-12-18T01:49:48.905Z,972.80
2022-12-18T01:50:48.860Z,972.81
2022-12-18T01:51:48.851Z,972.85
2022-12-18T01:52:48.759Z,972.88
2022-12-18T01:53:48.709Z,972.85
2022-12-18T01:54:48.660Z,972.85
2022-12-18T01:55:48.612Z,972.88
2022-12-18T01:56:48.560Z,972.89
2022-12-18T01:57:48.525Z,972.87
2022-12-18T01:58:48.462Z,972.88
2022-12-18T01:59:48.406Z,972.93
2022-12-18T02:00:48.430Z,972.90
2022-12-18T02:01:48.452Z,972.94
2022-12-18T02:02:48.380Z,972.97
2022-12-18T02:03:48.219Z,972.95
2022-12-18T02:04:49.726Z,972.92
2022-12-18T02:05:48.105Z,972.88
2022-12-18T02:06:48.054Z,972.88
2022-12-18T02:07:48.017Z,972.86
2022-12-18T02:08:47.957Z,972.81
2022-12-18T02:09:47.935Z,972.84
2022-12-18T02:10:47.859Z,972.80
2022-12-18T02:11:47.807Z,972.84
2022-12-18T02:12:47.784Z,972.86
2022-12-18T02:13:47.721Z,972.92
2022-12-18T02:14:47.656Z,972.90
2022-12-18T02:15:47.607Z,972.91
2022-12-18T02:16:47.566Z,972.83
2022-12-18T02:17:47.508Z,972.83
2022-12-18T02:18:47.455Z,972.83
2022-12-18T02:19:47.424Z,972.84
2022-12-18T02:20:47.357Z,972.84
2022-12-18T02:21:47.307Z,972.86
2022-12-18T02:22:47.260Z,972.84
2022-12-18T02:23:47.230Z,972.82
2022-12-18T02:24:47.152Z,972.84
2022-12-18T02:25:47.107Z,972.81
2022-12-18T02:26:47.050Z,972.79
2022-12-18T02:27:47.008Z,972.81
2022-12-18T02:28:46.960Z,972.79
2022-12-18T02:29:46.943Z,972.82
2022-12-18T02:30:46.886Z,972.81
2022-12-18T02:31:46.806Z,972.79
2022-12-18T02:32:46.758Z,972.81
2022-12-18T02:33:46.705Z,972.85
2022-12-18T02:34:46.653Z,972.89
2022-12-18T02:35:46.617Z,972.89
2022-12-18T02:36:46.554Z,972.89
2022-12-18T02:37:46.502Z,972.89
2022-12-18T02:38:46.462Z,972.88
2022-12-18T02:39:46.432Z,972.86
2022-12-18T02:40:46.354Z,972.83
2022-12-18T02:41:46.306Z,972.88
2022-12-18T02:42:46.252Z,972.89
2022-12-18T02:43:46.203Z,972.86
2022-12-18T02:44:46.157Z,972.86
2022-12-18T02:45:46.148Z,972.82
2022-12-18T02:46:46.052Z,972.79
2022-12-18T02:47:46.005Z,972.83
2022-12-18T02:48:45.956Z,972.80
2022-12-18T02:49:45.904Z,972.84
2022-12-18T02:50:45.850Z,972.79
2022-12-18T02:51:45.827Z,972.83
2022-12-18T02:52:45.759Z,972.83
2022-12-18T02:53:45.701Z,972.90
2022-12-18T02:54:45.650Z,972.88
2022-12-18T02:55:45.603Z,972.93
2022-12-18T02:56:45.552Z,972.91
2022-12-18T02:57:45.533Z,972.98
2022-12-18T02:58:45.453Z,972.99
2022-12-18T02:59:45.407Z,973.01
2022-12-18T03:00:45.349Z,973.01
2022-12-18T03:01:45.376Z,973.05
2022-12-18T03:02:45.353Z,973.06
2022-12-18T03:03:45.245Z,973.02
2022-12-18T03:04:45.157Z,973.04
2022-12-18T03:05:45.104Z,972.99
2022-12-18T03:06:45.050Z,973.04
2022-12-18T03:07:45.008Z,972.99
2022-12-18T03:08:44.957Z,973.00
2022-12-18T03:09:44.927Z,973.02
2022-12-18T03:10:44.851Z,973.00
2022-12-18T03:11:44.801Z,973.06
2022-12-18T03:12:44.762Z,973.02
2022-12-18T03:13:44.706Z,973.01
2022-12-18T03:14:44.670Z,973.03
2022-12-18T03:15:44.605Z,973.05
2022-12-18T03:16:44.596Z,973.04
2022-12-18T03:17:44.499Z,973.10
2022-12-18T03:18:44.448Z,973.09
2022-12-18T03:19:44.407Z,973.11
2022-12-18T03:20:44.368Z,973.09
2022-12-18T03:21:44.306Z,973.14
2022-12-18T03:22:44.257Z,973.14
2022-12-18T03:23:44.636Z,973.16
2022-12-18T03:24:44.154Z,973.15
2022-12-18T03:25:44.104Z,973.12
2022-12-18T03:26:44.076Z,973.15
2022-12-18T03:27:44.031Z,973.17
2022-12-18T03:28:43.982Z,973.17
2022-12-18T03:29:43.931Z,973.16
2022-12-18T03:30:43.863Z,973.16
2022-12-18T03:31:43.804Z,973.20
2022-12-18T03:32:43.755Z,973.18
2022-12-18T03:33:43.730Z,973.24
2022-12-18T03:34:43.655Z,973.23
2022-12-18T03:35:43.607Z,973.25
2022-12-18T03:36:43.553Z,973.27
2022-12-18T03:37:43.509Z,973.24
2022-12-18T03:38:43.455Z,973.29
2022-12-18T03:39:43.427Z,973.24
2022-12-18T03:40:43.355Z,973.23
2022-12-18T03:41:43.312Z,973.21
2022-12-18T03:42:43.255Z,973.21
2022-12-18T03:43:43.310Z,973.23
2022-12-18T03:44:43.154Z,973.22
2022-12-18T03:45:43.169Z,973.22
2022-12-18T03:46:43.098Z,973.26
2022-12-18T03:47:43.008Z,973.31
2022-12-18T03:48:42.954Z,973.28
2022-12-18T03:49:42.905Z,973.29
2022-12-18T03:50:42.861Z,973.31
2022-12-18T03:51:42.806Z,973.31
2022-12-18T03:52:42.779Z,973.30
2022-12-18T03:53:43.036Z,973.28
2022-12-18T03:54:42.659Z,973.30
2022-12-18T03:55:42.610Z,973.26
2022-12-18T03:56:42.557Z,973.27
2022-12-18T03:57:42.509Z,973.29
2022-12-18T03:58:42.478Z,973.27
2022-12-18T03:59:42.411Z,973.32
2022-12-18T04:00:42.365Z,973.27
2022-12-18T04:01:42.366Z,973.29
2022-12-18T04:02:42.399Z,973.30
2022-12-18T04:03:42.478Z,973.30
2022-12-18T04:04:42.156Z,973.27
2022-12-18T04:05:42.107Z,973.27
2022-12-18T04:06:42.062Z,973.30
2022-12-18T04:07:42.012Z,973.34
2022-12-18T04:08:41.982Z,973.33
2022-12-18T04:09:41.931Z,973.36
2022-12-18T04:10:41.858Z,973.37
2022-12-18T04:11:41.814Z,973.39
2022-12-18T04:12:41.759Z,973.41
2022-12-18T04:13:42.184Z,973.43
2022-12-18T04:14:41.828Z,973.48
2022-12-18T04:15:41.699Z,973.48
2022-12-18T04:16:41.558Z,973.47
2022-12-18T04:17:41.513Z,973.51
2022-12-18T04:18:41.460Z,973.50
2022-12-18T04:19:41.416Z,973.45
2022-12-18T04:20:41.386Z,973.46
2022-12-18T04:21:41.311Z,973.50
2022-12-18T04:22:41.275Z,973.49
2022-12-18T04:23:41.466Z,973.47
2022-12-18T04:24:41.184Z,973.45
2022-12-18T04:25:41.116Z,973.45
2022-12-18T04:26:41.084Z,973.47
2022-12-18T04:27:41.020Z,973.45
2022-12-18T04:28:40.987Z,973.47
2022-12-18T04:29:40.921Z,973.48
2022-12-18T04:30:41.027Z,973.54
2022-12-18T04:31:40.813Z,973.54
2022-12-18T04:32:40.783Z,973.57
2022-12-18T04:33:41.073Z,973.57
2022-12-18T04:34:40.665Z,973.60
2022-12-18T04:35:40.628Z,973.58
2022-12-18T04:36:50.034Z,973.59
2022-12-18T04:37:40.517Z,973.61
2022-12-18T04:38:40.505Z,973.63
2022-12-18T04:39:40.419Z,973.62
2022-12-18T04:40:40.368Z,973.62
2022-12-18T04:41:40.315Z,973.61
2022-12-18T04:42:40.347Z,973.57
2022-12-18T04:43:40.589Z,973.55
2022-12-18T04:44:40.186Z,973.60
2022-12-18T04:45:40.119Z,973.58
2022-12-18T04:46:40.130Z,973.67
2022-12-18T04:47:40.020Z,973.62
2022-12-18T04:48:39.968Z,973.65
2022-12-18T04:49:39.921Z,973.66
2022-12-18T04:50:39.899Z,973.59
2022-12-18T04:51:39.821Z,973.61
2022-12-18T04:52:39.816Z,973.68
2022-12-18T04:53:39.985Z,973.63
2022-12-18T04:54:39.671Z,973.60
2022-12-18T04:55:39.623Z,973.59
2022-12-18T04:56:39.569Z,973.68
2022-12-18T04:57:39.529Z,973.61
2022-12-18T04:58:39.501Z,973.62
2022-12-18T04:59:39.452Z,973.59
2022-12-18T05:00:39.413Z,973.57
2022-12-18T05:01:39.394Z,973.56
2022-12-18T05:02:39.335Z,973.58
2022-12-18T05:03:39.643Z,973.62
2022-12-18T05:04:39.175Z,973.60
2022-12-18T05:05:39.123Z,973.64
2022-12-18T05:06:39.094Z,973.63
2022-12-18T05:07:39.045Z,973.60
2022-12-18T05:08:38.975Z,973.62
2022-12-18T05:09:38.919Z,973.58
2022-12-18T05:10:38.874Z,973.53
2022-12-18T05:11:38.863Z,973.54
2022-12-18T05:12:38.774Z,973.57
2022-12-18T05:13:39.038Z,973.59
2022-12-18T05:14:38.669Z,973.54
2022-12-18T05:15:38.658Z,973.59
2022-12-18T05:16:38.570Z,973.57
2022-12-18T05:17:38.550Z,973.60
2022-12-18T05:18:38.481Z,973.59
2022-12-18T05:19:38.426Z,973.58
2022-12-18T05:20:38.378Z,973.56
2022-12-18T05:21:38.322Z,973.58
2022-12-18T05:22:38.271Z,973.59
2022-12-18T05:23:38.604Z,973.62
2022-12-18T05:24:38.180Z,973.56
2022-12-18T05:25:38.129Z,973.59
2022-12-18T05:26:38.067Z,973.60
2022-12-18T05:27:38.027Z,973.63
2022-12-18T05:28:37.978Z,973.63
2022-12-18T05:29:37.968Z,973.62
2022-12-18T05:30:37.900Z,973.66
2022-12-18T05:31:39.707Z,973.61
2022-12-18T05:32:37.769Z,973.62
2022-12-18T05:33:38.109Z,973.58
2022-12-18T05:34:37.667Z,973.65
2022-12-18T05:35:37.661Z,973.59
2022-12-18T05:36:37.579Z,973.61
2022-12-18T05:37:42.697Z,973.68
2022-12-18T05:38:37.470Z,973.65
2022-12-18T05:39:37.431Z,973.65
2022-12-18T05:40:37.374Z,973.63
2022-12-18T05:41:37.348Z,973.65
2022-12-18T05:42:37.273Z,973.68
2022-12-18T05:43:37.547Z,973.67
2022-12-18T05:44:37.177Z,973.64
2022-12-18T05:45:37.124Z,973.73
2022-12-18T05:46:37.127Z,973.70
2022-12-18T05:47:37.021Z,973.69
2022-12-18T05:48:36.971Z,973.69
2022-12-18T05:49:36.924Z,973.67
2022-12-18T05:50:36.872Z,973.68
2022-12-18T05:51:36.819Z,973.67
2022-12-18T05:52:37.084Z,973.71
2022-12-18T05:53:37.006Z,973.71
2022-12-18T05:54:36.669Z,973.68
2022-12-18T05:55:36.622Z,973.68
2022-12-18T05:56:36.566Z,973.71
2022-12-18T05:57:36.518Z,973.72
2022-12-18T05:58:36.492Z,973.73
2022-12-18T05:59:36.426Z,973.73
2022-12-18T06:03:47.444Z,973.77
2022-12-18T06:04:46.770Z,973.78
2022-12-18T06:05:47.024Z,973.80
2022-12-18T06:06:46.658Z,973.78
2022-12-18T06:07:46.603Z,973.77
2022-12-18T06:08:47.008Z,973.75
2022-12-18T06:09:46.528Z,973.78
2022-12-18T06:10:46.703Z,973.79
2022-12-18T06:11:52.107Z,973.73
2022-12-18T06:12:46.521Z,973.73
2022-12-18T06:13:46.574Z,973.75
2022-12-18T06:14:46.319Z,973.74
2022-12-18T06:15:46.245Z,973.77
2022-12-18T06:16:46.348Z,973.79
2022-12-18T06:17:46.127Z,973.81
2022-12-18T06:18:46.149Z,973.84
2022-12-18T06:19:46.025Z,973.83
2022-12-18T06:20:46.156Z,973.80
2022-12-18T06:21:45.903Z,973.85
2022-12-18T06:22:45.970Z,973.83
2022-12-18T06:23:45.799Z,973.86
2022-12-18T06:24:45.746Z,973.85
2022-12-18T06:25:45.833Z,973.84
2022-12-18T06:26:45.791Z,973.85
2022-12-18T06:27:45.625Z,973.85
2022-12-18T06:28:45.805Z,973.86
2022-12-18T06:29:45.497Z,973.93
2022-12-18T06:30:45.446Z,973.94
2022-12-18T06:31:45.530Z,973.94
2022-12-18T06:32:45.640Z,973.96
2022-12-18T06:33:45.296Z,973.96
2022-12-18T06:34:45.450Z,973.96
2022-12-18T06:35:45.215Z,973.95
2022-12-18T06:36:45.171Z,974.02
2022-12-18T06:37:54.937Z,973.99
2022-12-18T06:38:45.041Z,974.01
2022-12-18T06:39:44.991Z,973.95
2022-12-18T06:40:44.943Z,973.99
2022-12-18T06:41:44.889Z,973.96
2022-12-18T06:42:44.838Z,974.02
2022-12-18T06:43:44.814Z,974.00
2022-12-18T06:44:44.740Z,974.02
2022-12-18T06:45:44.753Z,974.05
2022-12-18T06:46:44.642Z,974.07
2022-12-18T06:47:44.591Z,974.08
2022-12-18T06:48:44.564Z,974.09
2022-12-18T06:49:44.598Z,974.14
2022-12-18T06:50:44.439Z,974.13
2022-12-18T06:51:44.393Z,974.14
2022-12-18T06:52:51.968Z,974.16
2022-12-18T06:53:53.003Z,974.19
2022-12-18T06:54:52.546Z,974.18
2022-12-18T06:55:44.369Z,974.23
2022-12-18T06:56:44.170Z,974.19
2022-12-18T06:57:44.173Z,974.22
2022-12-18T06:58:44.041Z,974.21
2022-12-18T06:59:44.191Z,974.21
2022-12-18T07:00:44.085Z,974.23
2022-12-18T07:01:44.169Z,974.23
2022-12-18T07:02:43.899Z,974.25
2022-12-18T07:03:44.488Z,974.19
2022-12-18T07:04:43.740Z,974.25
2022-12-18T07:05:43.834Z,974.24
2022-12-18T07:06:43.640Z,974.21
2022-12-18T07:07:43.836Z,974.27
2022-12-18T07:08:43.541Z,974.24
2022-12-18T07:09:43.863Z,974.25
2022-12-18T07:10:46.478Z,974.27
2022-12-18T07:11:43.394Z,974.24
2022-12-18T07:12:43.368Z,974.28
2022-12-18T07:13:43.854Z,974.28
2022-12-18T07:14:43.239Z,974.29
2022-12-18T07:15:43.280Z,974.32
2022-12-18T07:16:43.181Z,974.31
2022-12-18T07:17:43.097Z,974.34
2022-12-18T07:18:43.147Z,974.30
2022-12-18T07:19:43.117Z,974.34
2022-12-18T07:20:42.942Z,974.34
2022-12-18T07:21:43.121Z,974.34
2022-12-18T07:22:42.839Z,974.31
2022-12-18T07:23:42.923Z,974.31
2022-12-18T07:24:42.937Z,974.28
2022-12-18T07:25:42.690Z,974.29
2022-12-18T07:26:42.753Z,974.34
2022-12-18T07:27:42.606Z,974.30
2022-12-18T07:28:42.806Z,974.37
2022-12-18T07:29:42.663Z,974.36
2022-12-18T07:30:42.789Z,974.35
2022-12-18T07:31:42.461Z,974.36
2022-12-18T07:32:42.616Z,974.37
2022-12-18T07:33:42.548Z,974.41
2022-12-18T07:34:42.400Z,974.43
2022-12-18T07:35:42.403Z,974.42
2022-12-18T07:36:42.184Z,974.48
2022-12-18T07:37:42.239Z,974.50
2022-12-18T07:38:42.045Z,974.49
2022-12-18T07:39:42.435Z,974.51
2022-12-18T07:40:41.975Z,974.52
2022-12-18T07:41:46.599Z,974.54
2022-12-18T07:42:42.123Z,974.54
2022-12-18T07:43:42.230Z,974.59
2022-12-18T07:44:41.858Z,974.62
2022-12-18T07:45:41.741Z,974.62
2022-12-18T07:46:41.653Z,974.60
2022-12-18T07:47:41.594Z,974.60
2022-12-18T07:48:41.720Z,974.65
2022-12-18T07:49:41.758Z,974.65
2022-12-18T07:50:41.719Z,974.64
2022-12-18T07:51:41.393Z,974.65
2022-12-18T07:52:41.342Z,974.66
2022-12-18T07:53:41.693Z,974.71
2022-12-18T07:54:41.525Z,974.73
2022-12-18T07:56:05.413Z,974.76
2022-12-18T07:56:41.302Z,974.75
2022-12-18T07:57:50.822Z,974.78
2022-12-18T07:58:41.044Z,974.79
2022-12-18T07:59:41.152Z,974.79
2022-12-18T08:00:40.939Z,974.80
2022-12-18T08:01:41.448Z,974.81
2022-12-18T08:02:40.953Z,974.87
2022-12-18T08:03:41.071Z,974.91
2022-12-18T08:04:40.750Z,974.86
2022-12-18T08:05:40.782Z,974.85
2022-12-18T08:06:43.663Z,974.85
2022-12-18T08:07:40.796Z,974.87
2022-12-18T08:08:41.011Z,974.92
2022-12-18T08:09:40.494Z,974.94
2022-12-18T08:10:40.617Z,974.96
2022-12-18T08:11:40.537Z,974.94
2022-12-18T08:12:40.631Z,974.92
2022-12-18T08:13:40.682Z,974.94
2022-12-18T08:14:40.694Z,974.94
2022-12-18T08:15:40.194Z,974.99
2022-12-18T08:16:40.407Z,975.05
2022-12-18T08:17:40.100Z,974.93
2022-12-18T08:18:40.279Z,975.02
2022-12-18T08:19:39.995Z,974.97
2022-12-18T08:20:39.963Z,975.02
2022-12-18T08:21:39.891Z,975.03
2022-12-18T08:22:40.085Z,975.00
2022-12-18T08:23:43.090Z,974.97
2022-12-18T08:24:39.897Z,974.99
2022-12-18T08:25:39.717Z,974.98
2022-12-18T08:26:39.963Z,974.93
2022-12-18T08:27:39.605Z,975.06
2022-12-18T08:28:39.723Z,975.06
2022-12-18T08:29:39.494Z,975.05
2022-12-18T08:30:39.564Z,975.13
2022-12-18T08:31:39.430Z,975.09
2022-12-18T08:32:39.378Z,975.09
2022-12-18T08:33:39.895Z,975.10
2022-12-18T08:34:39.246Z,975.05
2022-12-18T08:35:45.476Z,975.07
2022-12-18T08:36:39.154Z,975.02
2022-12-18T08:37:39.376Z,975.10
2022-12-18T08:38:39.041Z,975.06
2022-12-18T08:39:39.095Z,975.13
2022-12-18T08:40:38.951Z,975.05
2022-12-18T08:41:39.104Z,975.03
2022-12-18T08:42:38.845Z,975.05
2022-12-18T08:43:39.271Z,975.04
2022-12-18T08:44:38.742Z,975.04
2022-12-18T08:45:38.975Z,975.00
2022-12-18T08:46:38.771Z,975.02
2022-12-18T08:47:38.938Z,975.07
2022-12-18T08:48:38.545Z,975.01
2022-12-18T08:49:38.492Z,975.03
2022-12-18T08:50:38.439Z,974.99
2022-12-18T08:51:38.558Z,975.06
2022-12-18T08:52:38.345Z,975.02
2022-12-18T08:53:38.788Z,974.95
2022-12-18T08:54:38.244Z,974.92
2022-12-18T08:55:38.204Z,974.92
2022-12-18T08:56:38.149Z,974.91
2022-12-18T08:57:38.198Z,974.89
2022-12-18T08:58:38.045Z,974.97
2022-12-18T08:59:38.408Z,974.90
2022-12-18T09:00:37.947Z,974.85
2022-12-18T09:01:38.012Z,974.83
2022-12-18T09:02:37.992Z,974.83
2022-12-18T09:03:38.219Z,974.78
2022-12-18T09:04:37.761Z,974.84
2022-12-18T09:05:37.845Z,974.78
2022-12-18T09:06:37.900Z,974.78
2022-12-18T09:07:37.590Z,974.77
2022-12-18T09:08:37.755Z,974.73
2022-12-18T09:09:37.691Z,974.78
2022-12-18T09:10:43.089Z,974.73
2022-12-18T09:11:37.695Z,974.74
2022-12-18T09:12:37.554Z,974.70
2022-12-18T09:13:37.662Z,974.73
2022-12-18T09:14:37.265Z,974.77
2022-12-18T09:15:38.332Z,974.75
2022-12-18T09:16:55.914Z,974.78
2022-12-18T09:17:46.603Z,974.81
2022-12-18T09:19:02.637Z,974.92
2022-12-18T09:19:36.996Z,974.96
2022-12-18T09:20:51.167Z,974.94
2022-12-18T09:21:48.487Z,974.98
2022-12-18T09:22:55.241Z,974.97
2022-12-18T09:23:50.268Z,975.00
2022-12-18T09:24:45.324Z,974.99
2022-12-18T09:25:45.362Z,975.08
2022-12-18T09:26:36.778Z,975.00
2022-12-18T09:29:27.066Z,975.02
2022-12-18T09:30:27.612Z,975.02
2022-12-18T09:31:18.884Z,975.06
2022-12-18T09:32:26.646Z,975.01
2022-12-18T09:33:18.596Z,975.04
2022-12-18T09:34:18.394Z,974.98
2022-12-18T09:36:57.527Z,974.93
2022-12-18T09:37:57.126Z,974.97
2022-12-18T09:38:57.342Z,975.03
2022-12-18T09:39:57.059Z,975.02
2022-12-18T09:40:57.355Z,974.96
2022-12-18T09:41:56.989Z,974.95
2022-12-18T09:42:56.873Z,974.93
2022-12-18T09:43:56.978Z,974.90
2022-12-18T09:44:56.819Z,974.93
2022-12-18T09:45:57.009Z,974.90
2022-12-18T09:46:56.829Z,974.88
2022-12-18T09:47:57.811Z,974.96
2022-12-18T09:48:56.576Z,974.97
2022-12-18T09:49:56.802Z,975.03
2022-12-18T09:50:56.473Z,975.00
2022-12-18T09:51:56.815Z,974.95
2022-12-18T09:52:56.405Z,975.02
2022-12-18T09:53:56.329Z,975.02
2022-12-18T09:54:56.289Z,975.04
2022-12-18T09:55:56.439Z,975.05
2022-12-18T09:56:56.174Z,975.01
2022-12-18T09:57:56.244Z,975.09
2022-12-18T09:58:56.319Z,975.09
2022-12-18T09:59:56.091Z,975.05
2022-12-18T10:00:55.982Z,975.06
2022-12-18T10:01:56.212Z,975.02
2022-12-18T10:02:55.988Z,975.01
2022-12-18T10:03:56.193Z,975.08
2022-12-18T10:04:55.822Z,975.04
2022-12-18T10:05:55.788Z,975.05
2022-12-18T10:06:55.684Z,975.07
2022-12-18T10:07:55.909Z,975.06
2022-12-18T10:08:55.582Z,975.08
2022-12-18T10:09:55.930Z,975.12
2022-12-18T10:10:55.493Z,975.13
2022-12-18T10:11:55.437Z,975.10
2022-12-18T10:12:59.530Z,975.15
2022-12-18T10:13:55.549Z,975.09
2022-12-18T10:14:55.334Z,975.16
2022-12-18T10:15:55.384Z,975.09
2022-12-18T10:16:55.192Z,975.11
2022-12-18T10:17:55.473Z,975.10
2022-12-18T10:18:55.274Z,975.05
2022-12-18T10:19:55.042Z,975.09
2022-12-18T10:20:55.292Z,975.03
2022-12-18T10:21:54.945Z,975.06
2022-12-18T10:22:55.096Z,975.07
2022-12-18T10:23:54.857Z,975.09
2022-12-18T10:24:54.905Z,975.07
2022-12-18T10:25:54.751Z,975.09
2022-12-18T10:26:55.157Z,975.07
2022-12-18T10:27:54.674Z,975.05
2022-12-18T10:28:54.728Z,975.06
2022-12-18T10:29:54.554Z,975.11
2022-12-18T10:30:54.789Z,975.04
2022-12-18T10:31:54.462Z,975.05
2022-12-18T10:32:54.576Z,974.98
2022-12-18T10:33:54.357Z,975.06
2022-12-18T10:34:59.841Z,974.98
2022-12-18T10:35:54.264Z,975.09
2022-12-18T10:36:54.411Z,975.01
2022-12-18T10:37:54.390Z,975.11
2022-12-18T10:38:54.401Z,975.03
2022-12-18T10:39:54.174Z,975.04
2022-12-18T10:40:54.271Z,975.00
2022-12-18T10:41:54.191Z,974.99
2022-12-18T10:42:54.536Z,974.98
2022-12-18T10:43:54.041Z,974.97
2022-12-18T10:44:53.963Z,974.96
2022-12-18T10:45:53.804Z,974.98
2022-12-18T10:46:53.810Z,975.01
2022-12-18T10:47:53.955Z,975.02
2022-12-18T10:48:53.626Z,975.08
2022-12-18T10:49:53.880Z,975.05
2022-12-18T10:51:53.488Z,975.04
2022-12-18T10:52:53.432Z,975.00
2022-12-18T10:53:53.687Z,975.07
2022-12-18T10:54:53.338Z,974.99
2022-12-18T10:55:53.494Z,975.00
2022-12-18T10:56:53.257Z,974.97
2022-12-18T10:57:53.319Z,975.02
2022-12-18T10:58:53.133Z,975.00
2022-12-18T10:59:53.323Z,975.00
2022-12-18T11:00:53.026Z,975.02
2022-12-18T11:01:53.267Z,974.96
2022-12-18T11:02:53.360Z,974.96
2022-12-18T11:03:57.580Z,974.98
2022-12-18T11:04:52.837Z,974.98
2022-12-18T11:05:53.064Z,975.02
2022-12-18T11:06:52.765Z,975.02
2022-12-18T11:07:52.863Z,975.00
2022-12-18T11:08:52.663Z,975.04
2022-12-18T11:09:52.883Z,975.01
2022-12-18T11:10:52.539Z,974.99
2022-12-18T11:11:52.691Z,974.95
2022-12-18T11:12:52.439Z,974.97
2022-12-18T11:13:52.707Z,974.95
2022-12-18T11:14:52.375Z,974.96
2022-12-18T11:15:52.674Z,974.91
2022-12-18T11:17:52.199Z,974.91
2022-12-18T11:18:52.333Z,974.86
2022-12-18T11:19:52.388Z,974.89
2022-12-18T11:20:56.884Z,974.88
2022-12-18T11:21:51.999Z,974.81
2022-12-18T11:22:52.153Z,974.87
2022-12-18T11:23:52.244Z,974.87
2022-12-18T11:25:22.550Z,974.85
2022-12-18T11:25:51.926Z,974.86
2022-12-18T11:26:57.801Z,974.92
2022-12-18T11:27:51.766Z,974.89
2022-12-18T11:28:51.891Z,974.90
2022-12-18T11:29:51.640Z,974.90
2022-12-18T11:30:51.736Z,974.84
2022-12-18T11:31:51.511Z,974.83
2022-12-18T11:32:51.717Z,974.79
2022-12-18T11:34:19.639Z,974.87
2022-12-18T11:34:55.927Z,974.81
2022-12-18T11:35:51.537Z,974.78
2022-12-18T11:36:51.265Z,974.81
2022-12-18T11:37:51.344Z,974.84
2022-12-18T11:38:51.169Z,974.81
2022-12-18T11:39:51.185Z,974.81
2022-12-18T11:40:51.366Z,974.77
2022-12-18T11:41:51.020Z,974.80
2022-12-18T11:42:51.187Z,974.79
2022-12-18T11:43:50.923Z,974.72
2022-12-18T11:44:51.087Z,974.65
2022-12-18T11:45:50.908Z,974.65
2022-12-18T11:46:50.839Z,974.68
2022-12-18T11:47:50.910Z,974.66
2022-12-18T11:48:50.679Z,974.63
2022-12-18T11:49:50.716Z,974.63
2022-12-18T11:50:50.619Z,974.62
2022-12-18T11:51:50.536Z,974.66
2022-12-18T11:52:56.573Z,974.65
2022-12-18T11:53:50.449Z,974.63
2022-12-18T11:54:50.560Z,974.62
2022-12-18T11:55:50.333Z,974.57
2022-12-18T11:56:51.605Z,974.52
2022-12-18T11:57:50.239Z,974.54
2022-12-18T11:58:52.224Z,974.50
2022-12-18T11:59:50.145Z,974.57
2022-12-18T12:00:51.211Z,974.50
2022-12-18T12:01:59.898Z,974.54
2022-12-18T12:02:50.256Z,974.49
2022-12-18T12:03:58.402Z,974.51
2022-12-18T12:06:27.777Z,974.55
2022-12-18T12:07:27.854Z,974.53
2022-12-18T12:10:09.141Z,974.57
2022-12-18T12:11:10.178Z,974.51
2022-12-18T12:12:08.706Z,974.55
2022-12-18T12:13:08.727Z,974.50
2022-12-18T12:14:08.763Z,974.51
2022-12-18T12:15:11.789Z,974.53
2022-12-18T12:16:02.806Z,974.54
2022-12-18T12:17:10.318Z,974.55
2022-12-18T12:18:00.762Z,974.49
2022-12-18T12:19:00.653Z,974.53
2022-12-18T12:20:00.673Z,974.47
2022-12-18T12:21:00.789Z,974.46
2022-12-18T12:22:00.524Z,974.42
2022-12-18T12:23:00.687Z,974.44
2022-12-18T12:24:00.379Z,974.46
2022-12-18T12:25:00.493Z,974.40
2022-12-18T12:26:00.274Z,974.44
2022-12-18T12:27:00.223Z,974.42
2022-12-18T12:28:00.317Z,974.44
2022-12-18T12:29:00.162Z,974.50
2022-12-18T12:30:00.225Z,974.50
2022-12-18T12:31:00.028Z,974.44
2022-12-18T12:32:00.236Z,974.46
2022-12-18T12:32:59.933Z,974.43
2022-12-18T12:33:59.943Z,974.40
2022-12-18T12:35:02.693Z,974.40
2022-12-18T12:35:59.974Z,974.38
2022-12-18T12:37:00.022Z,974.39
2022-12-18T12:37:59.773Z,974.41
2022-12-18T12:38:59.671Z,974.39
2022-12-18T12:39:59.794Z,974.44